Time;durP1;ratioP1;P1;durP2;ratioP2;P2;SDS_P1;SDS_P2;PMS_P1;PMS_P2;Temp;Humidity;BMP_temperature;BMP_pressure;BME280_temperature;BME280_humidity;BME280_pressure;Samples;Min_cycle;Max_cycle;Signal;HPM_P1;HPM_P2
2021/03/19 00:00:49;;;;;;;3.23;2.40;;;4.20;99.90;;;;;;5017298;28;20485;-67
2021/03/19 00:03:16;;;;;;;4.37;2.70;;;4.20;99.90;;;;;;5025667;28;20293;-68
2021/03/19 00:05:42;;;;;;;3.17;2.47;;;4.10;99.90;;;;;;5020700;28;20245;-68
2021/03/19 00:08:09;;;;;;;2.97;2.27;;;4.00;99.90;;;;;;5019704;28;20541;-68
2021/03/19 00:10:35;;;;;;;4.03;2.50;;;4.00;99.90;;;;;;5018184;28;20202;-67
2021/03/19 00:13:04;;;;;;;3.53;2.10;;;4.00;99.90;;;;;;5018484;28;20246;-69
2021/03/19 00:15:31;;;;;;;3.43;2.00;;;4.00;99.90;;;;;;5015810;28;20582;-69
2021/03/19 00:17:59;;;;;;;2.33;1.77;;;4.00;99.90;;;;;;5018424;28;20209;-68
2021/03/19 00:20:26;;;;;;;2.10;1.30;;;4.10;99.90;;;;;;5015627;28;20290;-68
2021/03/19 00:22:52;;;;;;;1.03;1.00;;;4.10;99.90;;;;;;5012514;28;20206;-67
2021/03/19 00:25:19;;;;;;;1.33;1.23;;;4.20;99.90;;;;;;5012684;28;20249;-68
2021/03/19 00:27:45;;;;;;;1.70;1.40;;;4.20;99.90;;;;;;5008717;28;20211;-68
2021/03/19 00:30:13;;;;;;;1.53;1.20;;;4.20;99.90;;;;;;5013896;28;20266;-69
2021/03/19 00:32:42;;;;;;;1.90;1.00;;;4.30;99.90;;;;;;5012963;28;20218;-69
2021/03/19 00:35:10;;;;;;;1.30;1.17;;;4.30;99.90;;;;;;5013458;28;20199;-68
2021/03/19 00:37:37;;;;;;;1.10;1.00;;;4.30;99.90;;;;;;5010019;28;20701;-68
2021/03/19 00:40:06;;;;;;;1.20;1.00;;;4.30;99.90;;;;;;5003985;28;20198;-69
2021/03/19 00:42:33;;;;;;;0.90;0.90;;;4.30;99.90;;;;;;5011066;28;20274;-69
2021/03/19 00:44:59;;;;;;;2.33;1.47;;;4.40;99.90;;;;;;5011968;28;20245;-68
2021/03/19 00:47:26;;;;;;;49.37;8.17;;;4.40;99.90;;;;;;5007433;28;20223;-69
2021/03/19 00:49:53;;;;;;;56.83;9.43;;;4.50;99.90;;;;;;4992239;28;20310;-69
2021/03/19 00:52:20;;;;;;;106.57;15.53;;;4.40;99.90;;;;;;5023482;28;20348;-69
2021/03/19 00:54:46;;;;;;;63.17;10.80;;;4.40;99.90;;;;;;5029388;28;20666;-68
2021/03/19 00:57:13;;;;;;;27.83;5.60;;;4.40;99.90;;;;;;5026483;28;20199;-68
2021/03/19 00:59:40;;;;;;;10.47;2.93;;;4.40;99.90;;;;;;5028810;28;20198;-69
2021/03/19 01:02:06;;;;;;;4.97;1.70;;;4.40;99.90;;;;;;5024916;28;20622;-67
2021/03/19 01:04:33;;;;;;;1.70;1.47;;;4.50;99.90;;;;;;5028242;28;20221;-67
2021/03/19 01:07:01;;;;;;;3.03;1.67;;;4.50;99.90;;;;;;5023433;28;20718;-69
2021/03/19 01:09:27;;;;;;;1.20;1.00;;;4.50;99.90;;;;;;5021230;28;20285;-69
2021/03/19 01:11:54;;;;;;;1.63;1.10;;;4.50;99.90;;;;;;5019346;28;20315;-69
2021/03/19 01:14:20;;;;;;;2.20;1.37;;;4.50;99.90;;;;;;5025042;28;20194;-68
2021/03/19 01:16:47;;;;;;;2.50;1.73;;;4.50;99.90;;;;;;5015994;28;20200;-69
2021/03/19 01:19:14;;;;;;;1.73;1.50;;;4.40;99.90;;;;;;5022897;28;20206;-69
2021/03/19 01:21:40;;;;;;;2.60;1.53;;;4.40;99.90;;;;;;5016074;28;20282;-69
2021/03/19 01:24:09;;;;;;;122.50;13.23;;;4.40;99.90;;;;;;5015703;28;20289;-68
2021/03/19 01:26:35;;;;;;;150.90;19.67;;;4.50;99.90;;;;;;5006186;28;20619;-68
2021/03/19 01:29:02;;;;;;;86.17;13.67;;;4.50;99.90;;;;;;5026225;28;20325;-68
2021/03/19 01:31:28;;;;;;;35.97;6.80;;;4.50;99.90;;;;;;5015969;28;20282;-68
2021/03/19 01:33:55;;;;;;;11.50;3.37;;;4.50;99.90;;;;;;5026810;28;20191;-68
2021/03/19 01:36:21;;;;;;;9.13;2.77;;;4.50;99.90;;;;;;5015120;28;20229;-68
2021/03/19 01:38:48;;;;;;;3.33;1.80;;;4.50;99.90;;;;;;5023016;28;20206;-68
2021/03/19 01:41:16;;;;;;;3.83;1.80;;;4.40;99.90;;;;;;5004164;28;20667;-68
2021/03/19 01:43:43;;;;;;;1.90;1.77;;;4.40;99.90;;;;;;5013872;28;20758;-68
2021/03/19 01:46:47;;;;;;;2.20;1.90;;;4.40;99.90;;;;;;5021355;28;20230;-68
2021/03/19 01:49:51;;;;;;;1.97;1.77;;;4.30;99.90;;;;;;5020259;28;20198;-69
2021/03/19 01:52:55;;;;;;;2.37;1.23;;;4.40;99.90;;;;;;5017339;28;20202;-68
2021/03/19 01:55:58;;;;;;;1.73;1.40;;;4.40;99.90;;;;;;5017393;28;20203;-68
2021/03/19 01:59:02;;;;;;;1.60;1.20;;;4.40;99.90;;;;;;5013786;28;20248;-68
2021/03/19 02:02:06;;;;;;;1.43;1.20;;;4.40;99.90;;;;;;5010711;28;20205;-69
2021/03/19 02:05:09;;;;;;;1.17;1.07;;;4.40;99.90;;;;;;5023691;28;20290;-69
2021/03/19 02:08:13;;;;;;;1.57;1.40;;;4.40;99.90;;;;;;5019039;28;20202;-69
2021/03/19 02:11:16;;;;;;;1.07;0.97;;;4.50;99.90;;;;;;5007850;28;20576;-69
2021/03/19 02:14:21;;;;;;;1.80;1.30;;;4.40;99.90;;;;;;5006534;28;20209;-68
2021/03/19 02:17:24;;;;;;;1.67;1.20;;;4.40;99.90;;;;;;5006060;28;20465;-69
2021/03/19 02:20:28;;;;;;;1.97;1.57;;;4.50;99.90;;;;;;5013281;28;20203;-69
2021/03/19 02:23:32;;;;;;;11.27;3.50;;;4.50;99.90;;;;;;5011574;28;20674;-69
2021/03/19 02:26:36;;;;;;;14.57;3.80;;;4.40;99.90;;;;;;5002400;28;20295;-69
2021/03/19 02:29:39;;;;;;;7.77;2.97;;;4.30;99.90;;;;;;5013868;28;20313;-69
2021/03/19 02:32:10;;;;;;;15.50;3.53;;;4.20;99.90;;;;;;5027171;28;20662;-69
2021/03/19 02:34:41;;;;;;;62.43;10.57;;;4.10;99.90;;;;;;5008917;28;20203;-70
2021/03/19 02:37:12;;;;;;;118.60;14.80;;;4.10;99.90;;;;;;5024015;28;20320;-69
2021/03/19 02:39:39;;;;;;;42.70;7.17;;;4.10;99.90;;;;;;5024409;28;20194;-70
2021/03/19 02:42:07;;;;;;;15.37;3.93;;;4.10;99.90;;;;;;5021869;28;20737;-69
2021/03/19 02:44:35;;;;;;;6.70;1.93;;;4.20;99.90;;;;;;5024071;28;20631;-69
2021/03/19 02:47:01;;;;;;;2.20;1.33;;;4.20;99.90;;;;;;5023146;28;20210;-69
2021/03/19 02:49:29;;;;;;;1.60;1.20;;;4.30;99.90;;;;;;5024678;28;20204;-70
2021/03/19 02:51:56;;;;;;;0.90;0.90;;;4.30;99.90;;;;;;5023617;28;20925;-68
2021/03/19 02:54:22;;;;;;;0.97;0.90;;;4.30;99.90;;;;;;5027145;28;20734;-69
2021/03/19 02:56:49;;;;;;;0.70;0.70;;;4.30;99.90;;;;;;5025394;28;20616;-70
2021/03/19 02:59:16;;;;;;;2.37;1.50;;;4.30;99.90;;;;;;5025838;28;20195;-68
2021/03/19 03:01:42;;;;;;;1.77;1.60;;;4.30;99.90;;;;;;5023020;28;20214;-68
2021/03/19 03:04:10;;;;;;;1.30;1.20;;;4.30;99.90;;;;;;5024812;28;20525;-67
2021/03/19 03:06:43;;;;;;;1.97;1.50;;;4.20;99.90;;;;;;5022983;28;20211;-68
2021/03/19 03:09:13;;;;;;;1.20;1.10;;;4.20;99.90;;;;;;5021210;28;20285;-70
2021/03/19 03:11:40;;;;;;;1.30;1.00;;;4.20;99.90;;;;;;5020070;28;20743;-68
2021/03/19 03:14:09;;;;;;;1.70;1.00;;;4.20;99.90;;;;;;5022071;28;20617;-68
2021/03/19 03:16:36;;;;;;;0.80;0.80;;;4.20;99.90;;;;;;5018356;28;20718;-68
2021/03/19 03:19:03;;;;;;;1.23;1.00;;;4.20;99.90;;;;;;5023880;28;20216;-68
2021/03/19 03:21:30;;;;;;;0.83;0.83;;;4.20;99.90;;;;;;5010920;28;20218;-68
2021/03/19 03:23:57;;;;;;;1.07;0.77;;;4.20;99.90;;;;;;5013596;28;20194;-67
2021/03/19 03:26:24;;;;;;;1.20;1.10;;;4.20;99.90;;;;;;5009014;28;20229;-68
2021/03/19 03:28:50;;;;;;;1.00;0.77;;;4.20;99.90;;;;;;5010975;28;20655;-67
2021/03/19 03:31:17;;;;;;;1.33;1.10;;;4.20;99.90;;;;;;5028861;28;20206;-68
2021/03/19 03:33:43;;;;;;;0.73;0.70;;;4.20;99.90;;;;;;5030642;28;20217;-67
2021/03/19 03:36:10;;;;;;;1.07;0.97;;;4.20;99.90;;;;;;5019765;28;20190;-68
2021/03/19 03:38:36;;;;;;;1.10;1.00;;;4.20;99.90;;;;;;5028541;28;20301;-67
2021/03/19 03:41:07;;;;;;;1.00;0.90;;;4.20;99.90;;;;;;5025909;28;20194;-68
2021/03/19 03:43:34;;;;;;;1.20;1.10;;;4.20;99.90;;;;;;5027243;28;20248;-68
2021/03/19 03:46:01;;;;;;;2.10;1.20;;;4.20;99.90;;;;;;5020891;28;20641;-68
2021/03/19 03:48:30;;;;;;;1.60;1.40;;;4.20;99.90;;;;;;5021266;28;20222;-68
2021/03/19 03:50:58;;;;;;;2.73;1.50;;;4.20;99.90;;;;;;5023675;28;20286;-68
2021/03/19 03:53:25;;;;;;;3.20;2.10;;;4.10;99.90;;;;;;5024968;28;20194;-68
2021/03/19 03:55:51;;;;;;;2.53;2.03;;;4.10;99.90;;;;;;5021079;28;20273;-69
2021/03/19 03:58:19;;;;;;;2.17;1.60;;;3.90;99.90;;;;;;5004121;28;20207;-69
2021/03/19 04:00:47;;;;;;;1.53;1.43;;;3.90;99.90;;;;;;5015757;28;20218;-69
2021/03/19 04:03:14;;;;;;;1.20;1.10;;;3.70;99.90;;;;;;5008773;28;20202;-69
2021/03/19 04:05:42;;;;;;;1.23;1.13;;;3.60;99.90;;;;;;5020247;28;20544;-69
2021/03/19 04:08:11;;;;;;;1.00;0.90;;;3.60;99.90;;;;;;5017330;28;20222;-69
2021/03/19 04:10:38;;;;;;;3.17;1.30;;;3.60;99.90;;;;;;5001777;28;20275;-68
2021/03/19 04:13:06;;;;;;;0.70;0.70;;;3.60;99.90;;;;;;5010388;28;20283;-69
2021/03/19 04:15:33;;;;;;;0.50;0.50;;;3.50;99.90;;;;;;5016222;28;20227;-69
2021/03/19 04:18:03;;;;;;;0.60;0.60;;;3.40;99.90;;;;;;5017660;28;20636;-68
2021/03/19 04:20:30;;;;;;;2.63;1.07;;;3.40;99.90;;;;;;5014587;28;20310;-68
2021/03/19 04:22:57;;;;;;;2.20;0.90;;;3.30;99.90;;;;;;5015313;28;20192;-68
2021/03/19 04:25:25;;;;;;;1.90;0.87;;;3.20;99.90;;;;;;5003337;28;20531;-68
2021/03/19 04:27:56;;;;;;;3.50;1.43;;;3.20;99.90;;;;;;5027376;28;20217;-68
2021/03/19 04:30:25;;;;;;;1.63;1.37;;;3.20;99.90;;;;;;5026571;28;20333;-68
2021/03/19 04:32:55;;;;;;;1.20;0.90;;;3.20;99.90;;;;;;5027494;28;20202;-68
2021/03/19 04:35:23;;;;;;;1.50;1.10;;;3.10;99.90;;;;;;5029084;28;20252;-68
2021/03/19 04:37:50;;;;;;;2.67;1.40;;;3.00;99.90;;;;;;5025705;28;20556;-68
2021/03/19 04:40:18;;;;;;;2.07;0.97;;;3.00;99.90;;;;;;5028194;28;20189;-68
2021/03/19 04:42:45;;;;;;;3.07;1.17;;;3.10;99.90;;;;;;5027146;28;20191;-68
2021/03/19 04:45:13;;;;;;;2.23;0.97;;;3.00;99.90;;;;;;5027226;28;20329;-69
2021/03/19 04:47:40;;;;;;;2.27;1.20;;;3.00;99.90;;;;;;5015425;28;20218;-68
2021/03/19 04:50:10;;;;;;;2.17;1.00;;;2.90;99.90;;;;;;5023454;28;20191;-68
2021/03/19 04:52:37;;;;;;;2.57;1.10;;;2.90;99.90;;;;;;5022015;28;20273;-68
2021/03/19 04:55:04;;;;;;;2.80;1.23;;;2.90;99.90;;;;;;5023127;28;20194;-68
2021/03/19 04:57:31;;;;;;;2.30;1.43;;;2.80;99.90;;;;;;5014034;28;20252;-67
2021/03/19 04:59:57;;;;;;;3.10;0.97;;;2.70;99.90;;;;;;5020473;28;20278;-68
2021/03/19 05:02:32;;;;;;;1.77;1.10;;;2.70;99.90;;;;;;5017372;28;20216;-68
2021/03/19 05:04:59;;;;;;;3.90;1.30;;;2.60;99.90;;;;;;5013172;28;20302;-68
2021/03/19 05:07:26;;;;;;;0.90;0.90;;;2.50;99.90;;;;;;5012170;28;20306;-67
2021/03/19 05:09:52;;;;;;;3.63;1.63;;;2.40;99.90;;;;;;5015736;28;20231;-68
2021/03/19 05:12:19;;;;;;;2.83;1.00;;;2.40;99.90;;;;;;5006626;28;20207;-68
2021/03/19 05:14:46;;;;;;;7.57;1.77;;;2.40;99.90;;;;;;5007593;28;20222;-69
2021/03/19 05:17:13;;;;;;;12.47;2.73;;;2.40;99.90;;;;;;4997337;28;20206;-69
2021/03/19 05:19:39;;;;;;;12.20;3.50;;;2.40;99.90;;;;;;5013395;28;20226;-69
2021/03/19 05:22:06;;;;;;;13.07;3.63;;;2.40;99.90;;;;;;5010787;28;20310;-69
2021/03/19 05:24:34;;;;;;;11.07;3.67;;;2.40;99.90;;;;;;4997713;28;20282;-68
2021/03/19 05:27:00;;;;;;;7.60;1.87;;;2.30;99.90;;;;;;5020589;28;20210;-69
2021/03/19 05:29:27;;;;;;;4.10;1.60;;;2.30;99.90;;;;;;5028313;28;20283;-69
2021/03/19 05:31:53;;;;;;;3.77;1.53;;;2.30;99.90;;;;;;5014680;28;20229;-68
2021/03/19 05:34:20;;;;;;;2.40;1.40;;;2.30;99.90;;;;;;5027711;28;20277;-68
2021/03/19 05:36:46;;;;;;;4.20;1.60;;;2.20;99.90;;;;;;5027490;28;20281;-66
2021/03/19 05:39:13;;;;;;;3.40;1.67;;;2.20;99.90;;;;;;5025703;28;20206;-66
2021/03/19 05:41:43;;;;;;;2.07;1.30;;;2.10;99.90;;;;;;5024488;28;20240;-68
2021/03/19 05:44:14;;;;;;;1.37;1.20;;;2.10;99.90;;;;;;5022945;28;20199;-69
2021/03/19 05:46:42;;;;;;;4.63;1.50;;;2.10;99.90;;;;;;5023476;28;20244;-68
2021/03/19 05:49:17;;;;;;;10.87;2.17;;;2.10;99.90;;;;;;5025350;28;20206;-68
2021/03/19 05:51:46;;;;;;;3.77;1.63;;;2.20;99.90;;;;;;5015838;28;20210;-68
2021/03/19 05:54:18;;;;;;;4.60;1.53;;;2.20;99.90;;;;;;5017610;28;20419;-69
2021/03/19 05:56:47;;;;;;;6.40;1.57;;;2.20;99.90;;;;;;5019472;28;20260;-69
2021/03/19 05:59:14;;;;;;;4.07;1.50;;;2.20;99.90;;;;;;5018460;28;20294;-69
2021/03/19 06:01:41;;;;;;;4.10;1.67;;;2.20;99.90;;;;;;5003507;28;20295;-69
2021/03/19 06:04:18;;;;;;;3.73;1.80;;;2.20;99.90;;;;;;5016948;28;20197;-68
2021/03/19 06:06:48;;;;;;;10.03;3.47;;;2.20;99.90;;;;;;5010493;28;20234;-69
2021/03/19 06:09:31;;;;;;;12.80;4.60;;;2.30;99.90;;;;;;5018294;28;20321;-68
2021/03/19 06:12:03;;;;;;;10.77;4.53;;;2.30;99.90;;;;;;5008445;28;20199;-69
2021/03/19 06:14:33;;;;;;;9.30;3.97;;;2.30;99.90;;;;;;5014052;28;20198;-68
2021/03/19 06:17:10;;;;;;;10.00;4.60;;;2.30;99.90;;;;;;5008246;28;20274;-68
2021/03/19 06:19:39;;;;;;;4.33;1.93;;;2.30;99.90;;;;;;5008427;28;20211;-68
2021/03/19 06:22:25;;;;;;;4.10;1.53;;;2.40;99.90;;;;;;5020051;28;20201;-68
2021/03/19 06:24:59;;;;;;;4.23;1.10;;;2.40;99.90;;;;;;5006852;28;20219;-67
2021/03/19 06:27:35;;;;;;;9.87;1.67;;;2.40;99.90;;;;;;5022085;28;20300;-68
2021/03/19 06:30:10;;;;;;;2.77;1.47;;;2.40;99.90;;;;;;5032333;28;20312;-68
2021/03/19 06:32:37;;;;;;;9.13;1.37;;;2.40;99.90;;;;;;5029339;28;20208;-69
2021/03/19 06:35:26;;;;;;;6.33;1.63;;;2.40;99.90;;;;;;5032581;28;20666;-68
2021/03/19 06:37:53;;;;;;;5.67;1.50;;;2.40;99.90;;;;;;5029787;28;20209;-68
2021/03/19 06:40:32;;;;;;;10.17;1.00;;;2.40;99.90;;;;;;5029207;28;20202;-68
2021/03/19 06:43:18;;;;;;;5.43;1.93;;;2.50;99.90;;;;;;5026522;28;20222;-68
2021/03/19 06:45:47;;;;;;;10.23;2.37;;;2.50;99.90;;;;;;5019866;28;20558;-67
2021/03/19 06:48:28;;;;;;;14.27;2.70;;;2.50;99.90;;;;;;5029970;28;20229;-68
2021/03/19 06:50:55;;;;;;;3.47;1.37;;;2.60;99.90;;;;;;5016105;28;20198;-69
2021/03/19 06:53:25;;;;;;;4.00;1.30;;;2.60;99.90;;;;;;5015591;28;20192;-69
2021/03/19 06:55:54;;;;;;;4.27;1.60;;;2.50;99.90;;;;;;5016137;28;20281;-68
2021/03/19 06:58:40;;;;;;;3.37;1.37;;;2.50;99.90;;;;;;5019802;28;20205;-67
2021/03/19 07:01:15;;;;;;;3.33;1.10;;;2.50;99.90;;;;;;5020633;28;20281;-68
2021/03/19 07:04:10;;;;;;;7.53;1.40;;;2.50;99.90;;;;;;5009722;28;20261;-67
2021/03/19 07:07:05;;;;;;;5.60;1.47;;;2.60;99.90;;;;;;4998778;28;20653;-70
2021/03/19 07:09:45;;;;;;;10.40;1.40;;;2.80;99.90;;;;;;5014851;28;20301;-68
2021/03/19 07:12:22;;;;;;;4.53;1.73;;;3.00;99.90;;;;;;4998923;28;20191;-68
2021/03/19 07:15:02;;;;;;;2.20;1.10;;;3.20;99.90;;;;;;5009438;28;20192;-68
2021/03/19 07:17:56;;;;;;;18.03;2.17;;;3.30;99.90;;;;;;5011358;28;20190;-68
2021/03/19 07:20:53;;;;;;;12.83;1.67;;;3.70;99.70;;;;;;4953647;28;20300;-69
2021/03/19 07:23:21;;;;;;;6.17;1.37;;;4.20;98.60;;;;;;4938630;28;20202;-69
2021/03/19 07:26:09;;;;;;;4.70;0.93;;;4.90;96.40;;;;;;4934898;28;20739;-69
2021/03/19 07:29:14;;;;;;;1.90;1.00;;;5.30;93.60;;;;;;4936750;28;20237;-70
2021/03/19 07:32:11;;;;;;;1.20;1.00;;;5.30;89.80;;;;;;4886531;29;20302;-68
2021/03/19 07:35:13;;;;;;;0.70;0.70;;;5.30;88.50;;;;;;4894129;29;20677;-67
2021/03/19 07:38:06;;;;;;;5.07;1.63;;;5.50;85.80;;;;;;4871216;29;21623;-67
2021/03/19 07:40:44;;;;;;;3.37;1.20;;;5.90;82.70;;;;;;4878547;29;20234;-67
2021/03/19 07:43:43;;;;;;;6.03;2.03;;;6.20;80.20;;;;;;4891822;29;20229;-68
2021/03/19 07:46:31;;;;;;;5.33;1.47;;;6.70;78.30;;;;;;4888334;29;20465;-69
2021/03/19 07:49:29;;;;;;;7.33;1.37;;;7.50;74.40;;;;;;4896274;29;20255;-68
2021/03/19 07:52:08;;;;;;;3.53;1.60;;;8.00;69.50;;;;;;4865108;29;20759;-67
2021/03/19 07:54:45;;;;;;;12.50;1.70;;;8.20;67.50;;;;;;4889015;29;20989;-68
2021/03/19 07:57:20;;;;;;;5.73;1.50;;;8.40;64.90;;;;;;4908916;28;20197;-67
2021/03/19 07:59:54;;;;;;;2.97;1.63;;;8.80;63.30;;;;;;4937687;28;20210;-68
2021/03/19 08:03:00;;;;;;;3.63;1.10;;;9.50;59.70;;;;;;4934172;28;20215;-67
2021/03/19 08:05:34;;;;;;;3.03;0.90;;;10.10;56.60;;;;;;4928325;28;20289;-69
2021/03/19 08:08:23;;;;;;;2.33;1.10;;;10.60;54.20;;;;;;4967547;28;20402;-66
2021/03/19 08:11:07;;;;;;;6.70;1.00;;;10.60;52.40;;;;;;5002083;28;20202;-71
2021/03/19 08:13:40;;;;;;;3.70;0.80;;;10.50;51.40;;;;;;4995150;28;20203;-66
2021/03/19 08:16:13;;;;;;;8.73;1.10;;;10.70;50.00;;;;;;5009685;28;20222;-68
2021/03/19 08:18:47;;;;;;;3.70;0.70;;;10.60;48.70;;;;;;5001908;28;20204;-69
2021/03/19 08:21:32;;;;;;;3.50;1.00;;;10.60;47.60;;;;;;4997523;28;20226;-68
2021/03/19 08:24:23;;;;;;;4.23;1.00;;;11.00;48.20;;;;;;5009452;28;20602;-67
2021/03/19 08:27:00;;;;;;;4.10;1.10;;;11.60;48.10;;;;;;5001938;28;20298;-68
2021/03/19 08:29:36;;;;;;;1.00;0.90;;;12.10;47.70;;;;;;5005742;28;20234;-67
2021/03/19 08:32:14;;;;;;;2.43;1.00;;;12.40;46.00;;;;;;4991730;28;20197;-69
2021/03/19 08:34:48;;;;;;;3.63;1.40;;;12.80;45.70;;;;;;5008920;28;20212;-68
2021/03/19 08:37:31;;;;;;;3.77;0.87;;;12.90;44.20;;;;;;4999117;28;20196;-68
2021/03/19 08:40:00;;;;;;;1.90;0.93;;;12.90;42.50;;;;;;4995758;28;20201;-69
2021/03/19 08:42:33;;;;;;;3.10;0.90;;;12.90;41.80;;;;;;4999051;28;20276;-71
2021/03/19 08:45:01;;;;;;;3.40;0.70;;;12.80;41.50;;;;;;5003209;28;20223;-67
2021/03/19 08:47:32;;;;;;;6.50;0.90;;;12.50;41.20;;;;;;4998873;28;20562;-67
2021/03/19 08:50:10;;;;;;;3.10;0.90;;;12.40;41.40;;;;;;4998840;28;20279;-68
2021/03/19 08:52:39;;;;;;;4.00;1.03;;;12.60;41.60;;;;;;5006354;28;20275;-68
2021/03/19 08:55:27;;;;;;;2.43;0.80;;;12.60;41.60;;;;;;4937977;28;20240;-68
2021/03/19 08:57:55;;;;;;;1.63;0.70;;;12.50;43.00;;;;;;4942545;28;20203;-68
2021/03/19 09:00:48;;;;;;;7.97;1.23;;;13.00;42.20;;;;;;4948920;28;20641;-68
2021/03/19 09:03:55;;;;;;;3.70;1.00;;;13.10;41.10;;;;;;4945739;28;20247;-68
2021/03/19 09:06:31;;;;;;;1.17;0.80;;;12.40;41.60;;;;;;4847945;29;20218;-68
2021/03/19 09:09:14;;;;;;;1.30;0.70;;;11.90;42.10;;;;;;4867487;29;20255;-69
2021/03/19 09:12:32;;;;;;;3.70;0.80;;;11.10;41.90;;;;;;4871114;29;20208;-68
2021/03/19 09:15:27;;;;;;;4.83;0.90;;;10.20;43.10;;;;;;4745262;30;20225;-67
2021/03/19 09:17:59;;;;;;;2.00;0.50;;;9.80;44.60;;;;;;4742380;30;20658;-68
2021/03/19 09:20:49;;;;;;;2.73;1.30;;;10.40;44.10;;;;;;4746330;30;20254;-68
2021/03/19 09:23:22;;;;;;;2.17;0.80;;;10.00;42.60;;;;;;4716174;30;20376;-67
2021/03/19 09:25:56;;;;;;;1.70;0.70;;;9.00;43.70;;;;;;4747042;30;20403;-68
2021/03/19 09:29:00;;;;;;;2.03;1.13;;;8.70;44.60;;;;;;4751141;30;20235;-69
2021/03/19 09:31:40;;;;;;;6.80;1.10;;;8.60;44.80;;;;;;4744859;30;20293;-68
2021/03/19 09:34:13;;;;;;;3.67;1.10;;;9.40;45.70;;;;;;4737594;30;20309;-68
2021/03/19 09:37:24;;;;;;;1.93;1.00;;;10.70;43.70;;;;;;4744070;30;20208;-67
2021/03/19 09:40:14;;;;;;;4.37;0.87;;;11.60;42.40;;;;;;4744824;30;20295;-69
2021/03/19 09:42:48;;;;;;;2.00;0.90;;;11.80;41.60;;;;;;4784120;29;20221;-67
2021/03/19 09:45:31;;;;;;;17.53;3.33;;;12.20;42.00;;;;;;4821131;29;20304;-69
2021/03/19 09:48:35;;;;;;;3.00;0.80;;;11.90;40.90;;;;;;4812803;29;20824;-66
2021/03/19 09:51:28;;;;;;;3.40;0.70;;;11.80;41.20;;;;;;4863821;29;21110;-67
2021/03/19 09:53:55;;;;;;;6.23;0.93;;;12.70;40.10;;;;;;4953438;28;20211;-67
2021/03/19 09:56:29;;;;;;;3.37;0.63;;;13.60;39.80;;;;;;4936187;28;20344;-68
2021/03/19 09:58:58;;;;;;;2.47;0.80;;;14.40;38.60;;;;;;4932144;28;20655;-68
2021/03/19 10:01:31;;;;;;;2.60;0.90;;;14.70;37.40;;;;;;4946874;28;20573;-68
2021/03/19 10:04:01;;;;;;;2.30;0.90;;;14.80;37.40;;;;;;4949523;28;20208;-69
2021/03/19 10:06:31;;;;;;;1.97;0.70;;;14.70;36.40;;;;;;4945078;28;20995;-68
2021/03/19 10:09:18;;;;;;;3.87;1.10;;;14.90;35.80;;;;;;4941886;28;20210;-68
2021/03/19 10:12:00;;;;;;;1.87;0.80;;;15.10;35.70;;;;;;4939048;28;20801;-68
2021/03/19 10:14:31;;;;;;;1.37;0.70;;;14.80;36.20;;;;;;4949171;28;20290;-69
2021/03/19 10:17:21;;;;;;;6.93;1.10;;;14.80;36.00;;;;;;4946906;28;20660;-69
2021/03/19 10:19:52;;;;;;;0.90;0.70;;;15.20;35.80;;;;;;4945206;28;20244;-68
2021/03/19 10:22:40;;;;;;;0.83;0.60;;;15.60;35.80;;;;;;4948380;28;20675;-66
2021/03/19 10:25:28;;;;;;;1.23;1.00;;;15.80;34.60;;;;;;4950976;28;20216;-66
2021/03/19 10:27:56;;;;;;;0.83;0.70;;;16.30;34.70;;;;;;4948830;28;20222;-67
2021/03/19 10:30:29;;;;;;;1.33;0.93;;;16.50;34.50;;;;;;4940441;28;20235;-67
2021/03/19 10:33:01;;;;;;;0.83;0.80;;;16.40;34.50;;;;;;4941613;28;20287;-68
2021/03/19 10:35:32;;;;;;;3.43;1.00;;;16.00;33.40;;;;;;4949969;28;20696;-67
2021/03/19 10:38:06;;;;;;;2.97;0.80;;;15.80;32.60;;;;;;4936748;28;20215;-67
2021/03/19 10:40:37;;;;;;;1.30;0.87;;;16.10;32.20;;;;;;4945666;28;20296;-69
2021/03/19 10:43:12;;;;;;;2.70;0.90;;;16.40;32.40;;;;;;4945632;28;20228;-68
2021/03/19 10:45:48;;;;;;;3.60;0.90;;;16.50;32.40;;;;;;4943354;28;20311;-67
2021/03/19 10:48:21;;;;;;;3.60;0.90;;;16.60;32.90;;;;;;4944198;28;20318;-67
2021/03/19 10:51:05;;;;;;;1.93;0.87;;;16.50;32.80;;;;;;4939894;28;20741;-68
2021/03/19 10:53:46;;;;;;;1.03;0.60;;;16.60;31.40;;;;;;4937555;28;20306;-67
2021/03/19 10:56:14;;;;;;;4.20;1.03;;;16.60;31.10;;;;;;4944293;28;21168;-68
2021/03/19 10:58:45;;;;;;;1.33;0.83;;;16.90;31.60;;;;;;4948723;28;20204;-67
2021/03/19 11:01:36;;;;;;;1.30;0.60;;;17.20;31.60;;;;;;4932964;28;20212;-69
2021/03/19 11:04:23;;;;;;;3.20;0.80;;;17.30;31.30;;;;;;4938321;28;20204;-68
2021/03/19 11:06:50;;;;;;;2.00;0.77;;;17.40;30.90;;;;;;4934628;28;20219;-68
2021/03/19 11:09:19;;;;;;;2.53;0.67;;;17.30;29.70;;;;;;4939233;28;20213;-68
2021/03/19 11:11:49;;;;;;;3.23;1.00;;;17.00;29.60;;;;;;4942189;28;20206;-68
2021/03/19 11:14:18;;;;;;;3.67;0.60;;;16.80;29.80;;;;;;4955194;28;20194;-67
2021/03/19 11:16:48;;;;;;;3.47;0.70;;;16.40;30.00;;;;;;4945948;28;20695;-68
2021/03/19 11:19:17;;;;;;;0.80;0.80;;;16.40;30.50;;;;;;4941168;28;20232;-68
2021/03/19 11:21:46;;;;;;;5.30;0.90;;;16.20;30.90;;;;;;4946037;28;20226;-68
2021/03/19 11:24:24;;;;;;;2.63;0.80;;;16.00;30.80;;;;;;4936284;28;20418;-67
2021/03/19 11:27:13;;;;;;;4.00;0.80;;;16.00;31.10;;;;;;4939404;28;20236;-68
2021/03/19 11:29:42;;;;;;;0.90;0.73;;;15.30;30.80;;;;;;4953503;28;20353;-67
2021/03/19 11:32:29;;;;;;;2.97;0.53;;;14.70;31.90;;;;;;4941152;28;20210;-68
2021/03/19 11:34:59;;;;;;;2.57;1.03;;;14.40;32.20;;;;;;4945586;28;20288;-67
2021/03/19 11:37:36;;;;;;;3.47;1.10;;;14.20;32.90;;;;;;4951011;28;20241;-68
2021/03/19 11:40:08;;;;;;;1.47;0.93;;;14.30;33.20;;;;;;4967935;28;20208;-68
2021/03/19 11:42:40;;;;;;;2.87;1.07;;;14.40;33.50;;;;;;4955404;28;20196;-67
2021/03/19 11:45:10;;;;;;;9.03;1.30;;;14.30;33.20;;;;;;4954697;28;20204;-67
2021/03/19 11:47:39;;;;;;;2.33;0.83;;;14.40;33.50;;;;;;4958808;28;20216;-68
2021/03/19 11:50:30;;;;;;;2.00;0.80;;;14.10;33.10;;;;;;4945281;28;20224;-68
2021/03/19 11:52:59;;;;;;;3.33;1.13;;;13.60;33.70;;;;;;4940278;28;20205;-68
2021/03/19 11:55:29;;;;;;;8.63;1.47;;;12.70;33.70;;;;;;4936351;28;20227;-68
2021/03/19 11:57:55;;;;;;;10.00;1.13;;;11.50;37.30;;;;;;4945696;28;20190;-68
2021/03/19 12:00:25;;;;;;;8.23;0.90;;;10.40;42.70;;;;;;4955368;28;20283;-69
2021/03/19 12:02:56;;;;;;;11.33;1.20;;;9.30;47.00;;;;;;4937432;28;20213;-69
2021/03/19 12:05:23;;;;;;;13.07;1.57;;;8.50;49.40;;;;;;4944355;28;20201;-68
2021/03/19 12:07:50;;;;;;;11.10;0.97;;;7.80;52.00;;;;;;4945859;28;20220;-68
2021/03/19 12:10:21;;;;;;;3.03;0.87;;;7.20;54.20;;;;;;4938838;28;20661;-68
2021/03/19 12:12:48;;;;;;;2.73;1.03;;;6.70;55.90;;;;;;4951792;28;20211;-68
2021/03/19 12:15:17;;;;;;;1.50;0.80;;;6.30;59.20;;;;;;4947084;28;20688;-67
2021/03/19 12:17:43;;;;;;;1.93;0.73;;;5.70;63.70;;;;;;4941538;28;20212;-68
2021/03/19 12:20:13;;;;;;;2.57;0.90;;;5.00;69.50;;;;;;4931310;28;20294;-68
2021/03/19 12:22:40;;;;;;;2.80;0.97;;;4.60;82.90;;;;;;4941124;28;20201;-68
2021/03/19 12:25:08;;;;;;;0.70;0.50;;;4.10;94.50;;;;;;4941645;28;20190;-68
2021/03/19 12:27:35;;;;;;;1.87;0.70;;;3.70;99.90;;;;;;4939087;28;20213;-68
2021/03/19 12:30:01;;;;;;;21.43;3.80;;;3.40;99.90;;;;;;4941140;28;20732;-68
2021/03/19 12:32:28;;;;;;;21.17;3.57;;;3.20;99.90;;;;;;4942572;28;20194;-69
2021/03/19 12:34:54;;;;;;;3.37;1.37;;;3.20;99.90;;;;;;4944415;28;20213;-69
2021/03/19 12:37:22;;;;;;;4.30;1.27;;;3.10;99.90;;;;;;4940879;28;20197;-67
2021/03/19 12:39:48;;;;;;;1.40;1.10;;;3.00;99.90;;;;;;4951314;28;20714;-69
2021/03/19 12:42:15;;;;;;;1.10;0.77;;;2.90;99.90;;;;;;4947517;28;20630;-68
2021/03/19 12:44:41;;;;;;;3.87;1.30;;;2.90;99.90;;;;;;4946841;28;20617;-67
2021/03/19 12:47:08;;;;;;;4.33;0.90;;;2.90;99.90;;;;;;4949514;28;20582;-67
2021/03/19 12:49:34;;;;;;;3.30;0.97;;;2.80;99.90;;;;;;4943353;28;20205;-68
2021/03/19 12:52:01;;;;;;;3.40;0.90;;;2.70;99.90;;;;;;4939305;28;20291;-68
2021/03/19 12:54:28;;;;;;;5.30;1.33;;;2.60;99.90;;;;;;4947360;28;20662;-68
2021/03/19 12:56:55;;;;;;;1.53;0.77;;;2.50;99.90;;;;;;4949819;28;20687;-67
2021/03/19 12:59:21;;;;;;;4.80;1.07;;;2.40;99.90;;;;;;4942410;28;20585;-67
2021/03/19 13:01:48;;;;;;;3.80;0.87;;;2.30;99.90;;;;;;4941920;28;20550;-68
2021/03/19 13:04:14;;;;;;;1.60;0.67;;;2.20;99.90;;;;;;4946510;28;20229;-68
2021/03/19 13:06:41;;;;;;;14.40;2.23;;;2.10;99.90;;;;;;4949265;28;20193;-67
2021/03/19 13:09:12;;;;;;;12.80;2.57;;;2.00;99.90;;;;;;4935587;28;20347;-68
2021/03/19 13:11:39;;;;;;;1.90;0.80;;;2.00;99.90;;;;;;4936188;28;20228;-68
2021/03/19 13:14:06;;;;;;;2.30;1.00;;;2.00;99.90;;;;;;4946607;28;20220;-68
2021/03/19 13:16:32;;;;;;;1.20;0.73;;;2.10;99.90;;;;;;4934602;28;20541;-69
2021/03/19 13:19:00;;;;;;;3.90;0.70;;;2.20;99.90;;;;;;4951607;28;20281;-67
2021/03/19 13:21:27;;;;;;;2.70;0.80;;;2.20;99.90;;;;;;4944224;28;20296;-68
2021/03/19 13:23:54;;;;;;;8.83;1.23;;;2.20;99.90;;;;;;4941960;28;20569;-68
2021/03/19 13:26:20;;;;;;;3.70;1.07;;;2.10;99.90;;;;;;4957424;28;20590;-67
2021/03/19 13:28:48;;;;;;;2.70;1.00;;;1.90;99.90;;;;;;4946698;28;20232;-68